Time;durP1;ratioP1;P1;durP2;ratioP2;P2;SDS_P1;SDS_P2;PMS_P1;PMS_P2;Temp;Humidity;BMP_temperature;BMP_pressure;BME280_temperature;BME280_humidity;BME280_pressure;Samples;Min_cycle;Max_cycle;Signal;HPM_P1;HPM_P2
2022/03/17 00:01:29;;;;;;;11.03;8.60;;;;;;;;;;4542910;28;20036;-64
2022/03/17 00:03:39;;;;;;;10.67;8.13;;;;;;;;;;4543451;28;26817;-65
2022/03/17 00:05:50;;;;;;;11.30;8.30;;;;;;;;;;4543316;28;20043;-65
2022/03/17 00:08:00;;;;;;;10.87;7.87;;;;;;;;;;4544701;28;20043;-64
2022/03/17 00:10:16;;;;;;;10.57;8.17;;;;;;;;;;4544312;28;20111;-65
2022/03/17 00:12:26;;;;;;;11.60;8.65;;;;;;;;;;4544154;28;20028;-64
2022/03/17 00:14:37;;;;;;;11.30;8.33;;;;;;;;;;4542508;28;20045;-65
2022/03/17 00:16:47;;;;;;;11.77;8.77;;;;;;;;;;4543051;28;20033;-66
2022/03/17 00:18:58;;;;;;;10.57;8.07;;;;;;;;;;4542359;28;20085;-64
2022/03/17 00:21:08;;;;;;;12.13;8.90;;;;;;;;;;4544271;28;20848;-65
2022/03/17 00:23:19;;;;;;;11.33;7.83;;;;;;;;;;4542465;28;20501;-66
2022/03/17 00:25:29;;;;;;;10.53;7.73;;;;;;;;;;4525738;28;20028;-65
2022/03/17 00:27:40;;;;;;;10.50;7.90;;;;;;;;;;4540573;28;20025;-64
2022/03/17 00:29:51;;;;;;;11.67;8.57;;;;;;;;;;4544543;28;20035;-64
2022/03/17 00:32:03;;;;;;;12.32;8.63;;;;;;;;;;4543264;28;20033;-64
2022/03/17 00:34:13;;;;;;;10.20;8.00;;;;;;;;;;4543660;28;20079;-65
2022/03/17 00:36:24;;;;;;;11.10;8.47;;;;;;;;;;4544589;28;20115;-65
2022/03/17 00:38:34;;;;;;;10.77;7.87;;;;;;;;;;4543358;28;20041;-64
2022/03/17 00:40:46;;;;;;;10.37;8.30;;;;;;;;;;4543885;28;20112;-64
2022/03/17 00:42:56;;;;;;;10.55;7.95;;;;;;;;;;4543207;28;20029;-65
2022/03/17 00:45:10;;;;;;;11.00;7.50;;;;;;;;;;4542965;28;39588;-64
2022/03/17 00:47:21;;;;;;;9.50;7.03;;;;;;;;;;4544239;28;20040;-64
2022/03/17 00:49:32;;;;;;;10.27;7.90;;;;;;;;;;4542978;28;20115;-64
2022/03/17 00:51:42;;;;;;;10.80;7.67;;;;;;;;;;4543074;28;20397;-65
2022/03/17 00:53:52;;;;;;;9.33;7.07;;;;;;;;;;4544533;28;20132;-64
2022/03/17 00:56:04;;;;;;;10.03;7.37;;;;;;;;;;4542005;28;20115;-64
2022/03/17 00:58:14;;;;;;;10.43;7.38;;;;;;;;;;4544244;28;20132;-64
2022/03/17 01:00:25;;;;;;;11.70;7.97;;;;;;;;;;4543386;28;20529;-65
2022/03/17 01:02:35;;;;;;;9.37;6.90;;;;;;;;;;4544936;28;20064;-64
2022/03/17 01:04:45;;;;;;;9.60;7.20;;;;;;;;;;4543218;28;20115;-64
2022/03/17 01:06:56;;;;;;;10.17;7.37;;;;;;;;;;4543183;28;20072;-65
2022/03/17 01:09:06;;;;;;;9.50;7.03;;;;;;;;;;4544733;28;20068;-64
2022/03/17 01:11:17;;;;;;;10.13;7.60;;;;;;;;;;4542633;28;20378;-64
2022/03/17 01:13:27;;;;;;;10.43;7.23;;;;;;;;;;4542732;28;20041;-65
2022/03/17 01:15:38;;;;;;;9.57;7.30;;;;;;;;;;4545244;28;20068;-64
2022/03/17 01:17:49;;;;;;;9.27;6.90;;;;;;;;;;4546455;28;20564;-64
2022/03/17 01:19:59;;;;;;;10.07;7.45;;;;;;;;;;4546102;28;20043;-64
2022/03/17 01:22:11;;;;;;;10.10;7.17;;;;;;;;;;4546406;28;20476;-64
2022/03/17 01:24:21;;;;;;;11.13;8.02;;;;;;;;;;4547304;28;20032;-65
2022/03/17 01:26:31;;;;;;;9.00;6.80;;;;;;;;;;4544891;28;20044;-64
2022/03/17 01:28:42;;;;;;;10.80;7.77;;;;;;;;;;4545682;28;20059;-64
2022/03/17 01:30:53;;;;;;;10.23;7.83;;;;;;;;;;4543404;28;20033;-64
2022/03/17 01:33:04;;;;;;;10.10;7.38;;;;;;;;;;4547033;28;20062;-65
2022/03/17 01:35:14;;;;;;;10.00;7.60;;;;;;;;;;4545869;28;20280;-65
2022/03/17 01:37:25;;;;;;;9.50;7.43;;;;;;;;;;4514186;28;20037;-65
2022/03/17 01:39:36;;;;;;;9.70;7.55;;;;;;;;;;4543235;28;20028;-65
2022/03/17 01:41:46;;;;;;;9.95;7.88;;;;;;;;;;4547257;28;20627;-65
2022/03/17 01:43:57;;;;;;;10.20;7.87;;;;;;;;;;4546583;28;20131;-64
2022/03/17 01:46:09;;;;;;;10.00;7.20;;;;;;;;;;4545783;28;20075;-64
2022/03/17 01:48:21;;;;;;;10.38;7.65;;;;;;;;;;4546120;28;20032;-64
2022/03/17 01:50:32;;;;;;;9.85;7.35;;;;;;;;;;4543118;28;20040;-64
2022/03/17 01:52:43;;;;;;;9.10;7.27;;;;;;;;;;4546701;28;20037;-65
2022/03/17 01:54:53;;;;;;;10.00;7.27;;;;;;;;;;4546154;28;20105;-64
2022/03/17 01:57:05;;;;;;;11.13;8.00;;;;;;;;;;4543613;28;30441;-64
2022/03/17 01:59:15;;;;;;;10.85;7.80;;;;;;;;;;4546715;28;20032;-64
2022/03/17 02:01:26;;;;;;;10.33;7.73;;;;;;;;;;4537230;28;20329;-64
2022/03/17 02:03:37;;;;;;;9.90;7.57;;;;;;;;;;4545491;28;20034;-64
2022/03/17 02:05:47;;;;;;;10.15;7.45;;;;;;;;;;4544894;28;20034;-65
2022/03/17 02:07:58;;;;;;;10.23;7.33;;;;;;;;;;4532722;28;20053;-64
2022/03/17 02:10:08;;;;;;;10.27;7.87;;;;;;;;;;4545457;28;29590;-65
2022/03/17 02:14:51;;;;;;;10.90;7.93;;;;;;;;;;4547209;28;20240;-66
2022/03/17 02:17:02;;;;;;;9.40;7.45;;;;;;;;;;4545789;28;20040;-64
2022/03/17 02:19:12;;;;;;;10.03;7.60;;;;;;;;;;4545332;28;20040;-64
2022/03/17 02:21:23;;;;;;;11.17;8.17;;;;;;;;;;4545863;28;20041;-65
2022/03/17 02:26:04;;;;;;;10.38;7.70;;;;;;;;;;4543619;28;20733;-65
2022/03/17 02:28:15;;;;;;;10.18;7.90;;;;;;;;;;4544401;28;20035;-65
2022/03/17 02:30:26;;;;;;;10.00;7.23;;;;;;;;;;4544967;28;20036;-65
2022/03/17 02:32:37;;;;;;;10.73;8.30;;;;;;;;;;4545569;28;20345;-65
2022/03/17 02:34:47;;;;;;;10.80;8.20;;;;;;;;;;4546299;28;20037;-64
2022/03/17 02:36:59;;;;;;;11.73;8.60;;;;;;;;;;4545795;28;20040;-64
2022/03/17 02:39:09;;;;;;;10.35;8.35;;;;;;;;;;4544445;28;20572;-65
2022/03/17 02:41:23;;;;;;;9.87;8.00;;;;;;;;;;4542984;28;20048;-65
2022/03/17 02:43:33;;;;;;;10.77;8.25;;;;;;;;;;4544911;28;20148;-65
2022/03/17 02:45:45;;;;;;;10.40;8.17;;;;;;;;;;4545100;28;20037;-64
2022/03/17 02:47:55;;;;;;;;;;;;;;;;;;4544525;28;20040;-64
2022/03/17 02:50:07;;;;;;;11.40;8.93;;;;;;;;;;4545851;28;19961;-64
2022/03/17 02:52:17;;;;;;;;;;;;;;;;;;4530683;28;20033;-65
2022/03/17 02:54:28;;;;;;;10.93;8.82;;;;;;;;;;4544787;28;19916;-65
2022/03/17 02:56:38;;;;;;;10.00;7.93;;;;;;;;;;4542577;28;34115;-65
2022/03/17 02:58:48;;;;;;;10.17;8.30;;;;;;;;;;4545882;28;20029;-64
2022/03/17 03:00:59;;;;;;;10.60;8.53;;;;;;;;;;4545097;28;20497;-64
2022/03/17 03:03:10;;;;;;;11.50;8.80;;;;;;;;;;4547897;28;20036;-64
2022/03/17 03:05:21;;;;;;;11.17;8.80;;;;;;;;;;4545745;28;20044;-64
2022/03/17 03:07:31;;;;;;;11.18;8.65;;;;;;;;;;4544204;28;20544;-64
2022/03/17 03:09:42;;;;;;;11.37;9.07;;;;;;;;;;4544359;28;20052;-65
2022/03/17 03:11:52;;;;;;;11.17;9.00;;;;;;;;;;4544225;28;34619;-64
2022/03/17 03:14:06;;;;;;;11.87;9.23;;;;;;;;;;4543816;28;24877;-64
2022/03/17 03:16:16;;;;;;;10.68;8.43;;;;;;;;;;4543399;28;20518;-65
2022/03/17 03:18:27;;;;;;;11.33;9.77;;;;;;;;;;4544039;28;20111;-64
2022/03/17 03:20:38;;;;;;;11.10;9.90;;;;;;;;;;4545491;28;20927;-65
2022/03/17 03:22:48;;;;;;;10.73;9.20;;;;;;;;;;4544731;28;20160;-64
2022/03/17 03:24:59;;;;;;;12.53;9.93;;;;;;;;;;4544322;28;20028;-64
2022/03/17 03:27:09;;;;;;;11.93;9.67;;;;;;;;;;4544342;28;20037;-64
2022/03/17 03:29:23;;;;;;;11.60;9.50;;;;;;;;;;4530679;28;21203;-64
2022/03/17 03:31:34;;;;;;;11.82;9.55;;;;;;;;;;4544407;28;20181;-64
2022/03/17 03:33:44;;;;;;;;;;;;;;;;;;4544497;28;20028;-64
2022/03/17 03:38:24;;;;;;;11.73;9.70;;;;;;;;;;4543910;28;20037;-65
2022/03/17 03:40:34;;;;;;;11.30;9.63;;;;;;;;;;4543270;28;37294;-64
2022/03/17 03:42:45;;;;;;;11.40;9.73;;;;;;;;;;4543360;28;20055;-64
2022/03/17 03:44:55;;;;;;;11.87;10.37;;;;;;;;;;4545047;28;20040;-64
2022/03/17 03:47:07;;;;;;;11.03;9.43;;;;;;;;;;4544179;28;20094;-64
2022/03/17 03:49:18;;;;;;;11.60;9.93;;;;;;;;;;4545449;28;20072;-64
2022/03/17 03:51:28;;;;;;;11.23;9.50;;;;;;;;;;4545690;28;20024;-64
2022/03/17 03:56:08;;;;;;;11.70;9.57;;;;;;;;;;4544912;28;20611;-64
2022/03/17 03:58:18;;;;;;;11.57;9.70;;;;;;;;;;4545132;28;20191;-64
2022/03/17 04:02:39;;;;;;;11.73;10.03;;;;;;;;;;4544132;28;20140;-64
2022/03/17 04:04:49;;;;;;;12.33;10.13;;;;;;;;;;4544626;28;20188;-64
2022/03/17 04:07:05;;;;;;;11.23;9.77;;;;;;;;;;4543340;28;20044;-64
2022/03/17 04:09:17;;;;;;;11.77;10.13;;;;;;;;;;4544911;28;20777;-64
2022/03/17 04:11:28;;;;;;;11.30;9.25;;;;;;;;;;4544953;28;20180;-65
2022/03/17 04:13:38;;;;;;;11.83;9.03;;;;;;;;;;4543891;28;33285;-64
2022/03/17 04:15:48;;;;;;;12.73;10.30;;;;;;;;;;4544525;28;20036;-64
2022/03/17 04:17:59;;;;;;;12.43;10.23;;;;;;;;;;4543694;28;20100;-64
2022/03/17 04:20:10;;;;;;;11.80;9.57;;;;;;;;;;4543597;28;20037;-64
2022/03/17 04:22:20;;;;;;;12.75;9.85;;;;;;;;;;4551712;28;20194;-64
2022/03/17 04:24:31;;;;;;;10.93;9.10;;;;;;;;;;4544780;28;27584;-64
2022/03/17 04:26:42;;;;;;;11.27;9.77;;;;;;;;;;4545141;28;20094;-64
2022/03/17 04:28:52;;;;;;;11.87;9.97;;;;;;;;;;4543856;28;20041;-64
2022/03/17 04:31:03;;;;;;;11.67;10.00;;;;;;;;;;4545349;28;20298;-64
2022/03/17 04:33:14;;;;;;;12.15;10.00;;;;;;;;;;4544665;28;20036;-64
2022/03/17 04:35:25;;;;;;;12.03;9.87;;;;;;;;;;4544128;28;20045;-64
2022/03/17 04:37:35;;;;;;;11.20;9.43;;;;;;;;;;4540615;28;20482;-64
2022/03/17 04:39:46;;;;;;;11.83;9.43;;;;;;;;;;4545839;28;20029;-64
2022/03/17 04:41:56;;;;;;;11.93;9.63;;;;;;;;;;4545073;28;20029;-64
2022/03/17 04:44:12;;;;;;;11.10;9.37;;;;;;;;;;4544452;28;20563;-64
2022/03/17 04:46:23;;;;;;;13.05;9.43;;;;;;;;;;4544535;28;20512;-64
2022/03/17 04:48:34;;;;;;;10.53;8.83;;;;;;;;;;4542139;28;20060;-64
2022/03/17 04:50:45;;;;;;;11.30;9.45;;;;;;;;;;4545815;28;20564;-64
2022/03/17 04:55:24;;;;;;;12.68;10.10;;;;;;;;;;4546644;28;20112;-64
2022/03/17 04:57:34;;;;;;;11.53;9.60;;;;;;;;;;4546192;28;35306;-64
2022/03/17 04:59:45;;;;;;;11.13;9.13;;;;;;;;;;4546381;28;20033;-64
2022/03/17 05:01:55;;;;;;;11.73;9.40;;;;;;;;;;4546305;28;20087;-64
2022/03/17 05:04:06;;;;;;;11.53;9.77;;;;;;;;;;4547171;28;20037;-64
2022/03/17 05:06:16;;;;;;;13.33;10.10;;;;;;;;;;4544551;28;30304;-64
2022/03/17 05:08:27;;;;;;;11.87;9.47;;;;;;;;;;4546517;28;20398;-64
2022/03/17 05:10:38;;;;;;;11.77;9.70;;;;;;;;;;4547564;28;20032;-64
2022/03/17 05:12:48;;;;;;;11.37;9.73;;;;;;;;;;4547306;28;20037;-64
2022/03/17 05:14:58;;;;;;;11.80;9.90;;;;;;;;;;4545529;28;20098;-65
2022/03/17 05:17:09;;;;;;;11.40;9.20;;;;;;;;;;4545716;28;20131;-64
2022/03/17 05:19:19;;;;;;;11.27;9.13;;;;;;;;;;4548440;28;20091;-64
2022/03/17 05:21:30;;;;;;;12.13;9.17;;;;;;;;;;4547799;28;20600;-64
2022/03/17 05:23:40;;;;;;;10.60;8.73;;;;;;;;;;4546035;28;20636;-64
2022/03/17 05:25:51;;;;;;;12.00;9.60;;;;;;;;;;4547383;28;20922;-64
2022/03/17 05:28:02;;;;;;;11.87;9.80;;;;;;;;;;4546870;28;20044;-64
2022/03/17 05:30:13;;;;;;;10.63;8.82;;;;;;;;;;4546514;28;20247;-64
2022/03/17 05:32:24;;;;;;;;;;;;;;;;;;4547167;28;20048;-64
2022/03/17 05:34:34;;;;;;;11.68;9.85;;;;;;;;;;4546549;28;20419;-64
2022/03/17 05:36:45;;;;;;;11.43;9.30;;;;;;;;;;4546776;28;20114;-64
2022/03/17 05:38:55;;;;;;;11.67;9.73;;;;;;;;;;4546184;28;20036;-64
2022/03/17 05:41:06;;;;;;;11.93;10.07;;;;;;;;;;4546386;28;20044;-64
2022/03/17 05:43:17;;;;;;;11.67;9.57;;;;;;;;;;4544871;28;20053;-64
2022/03/17 05:45:28;;;;;;;11.85;9.35;;;;;;;;;;4544817;28;20167;-64
2022/03/17 05:47:44;;;;;;;11.32;9.73;;;;;;;;;;4559975;28;21213;-64
2022/03/17 05:49:54;;;;;;;11.55;10.15;;;;;;;;;;4547526;28;20084;-64
2022/03/17 05:52:05;;;;;;;11.90;10.10;;;;;;;;;;4547561;28;25729;-64
2022/03/17 05:54:15;;;;;;;12.73;10.13;;;;;;;;;;4545520;28;20124;-64
2022/03/17 05:56:25;;;;;;;12.03;9.97;;;;;;;;;;4547041;28;30780;-64
2022/03/17 05:58:36;;;;;;;11.77;9.80;;;;;;;;;;4544685;28;23924;-64
2022/03/17 06:00:46;;;;;;;11.53;9.57;;;;;;;;;;4544441;28;43990;-64
2022/03/17 06:02:58;;;;;;;11.97;9.60;;;;;;;;;;4545843;28;20045;-64
2022/03/17 06:05:08;;;;;;;;;;;;;;;;;;4549946;28;20036;-64
2022/03/17 06:07:19;;;;;;;11.68;9.50;;;;;;;;;;4544338;28;19916;-64
2022/03/17 06:09:29;;;;;;;11.70;9.87;;;;;;;;;;4542895;28;20041;-65
2022/03/17 06:11:41;;;;;;;11.60;10.37;;;;;;;;;;4544145;28;20033;-65
2022/03/17 06:13:53;;;;;;;10.82;9.48;;;;;;;;;;4545881;28;20165;-64
2022/03/17 06:16:05;;;;;;;10.95;9.35;;;;;;;;;;4542747;28;20043;-64
2022/03/17 06:18:16;;;;;;;12.38;10.45;;;;;;;;;;4545994;28;20047;-64
2022/03/17 06:20:29;;;;;;;11.97;10.10;;;;;;;;;;4546817;28;20036;-64
2022/03/17 06:22:41;;;;;;;12.27;9.95;;;;;;;;;;4545139;28;20036;-64
2022/03/17 06:24:52;;;;;;;11.20;9.65;;;;;;;;;;4545932;28;20033;-64
2022/03/17 06:27:02;;;;;;;11.80;9.87;;;;;;;;;;4530660;28;20029;-64
2022/03/17 06:29:13;;;;;;;11.20;9.63;;;;;;;;;;4543269;28;20044;-64
2022/03/17 06:31:23;;;;;;;12.40;10.40;;;;;;;;;;4545858;28;20037;-64
2022/03/17 06:33:33;;;;;;;11.40;9.70;;;;;;;;;;4545264;28;20037;-64
2022/03/17 06:35:44;;;;;;;11.90;9.93;;;;;;;;;;4546537;28;20087;-64
2022/03/17 06:37:57;;;;;;;13.03;10.57;;;;;;;;;;4545801;28;20036;-64
2022/03/17 06:40:08;;;;;;;11.18;9.60;;;;;;;;;;4531142;28;20701;-65
2022/03/17 06:42:18;;;;;;;11.88;10.25;;;;;;;;;;4543915;28;20115;-65
2022/03/17 06:44:29;;;;;;;11.33;9.60;;;;;;;;;;4548271;28;20052;-66
2022/03/17 06:46:39;;;;;;;11.73;9.40;;;;;;;;;;4529451;28;20072;-65
2022/03/17 06:48:50;;;;;;;12.77;10.30;;;;;;;;;;4546582;28;20033;-65
2022/03/17 06:51:00;;;;;;;12.77;10.27;;;;;;;;;;4546641;28;20052;-65
2022/03/17 06:53:10;;;;;;;12.93;10.60;;;;;;;;;;4545543;28;20033;-65
2022/03/17 06:55:21;;;;;;;11.90;10.10;;;;;;;;;;4545888;28;20626;-65
2022/03/17 06:57:31;;;;;;;12.53;10.17;;;;;;;;;;4549268;28;20044;-65
2022/03/17 06:59:42;;;;;;;12.13;10.47;;;;;;;;;;4544659;28;20064;-65
2022/03/17 07:01:52;;;;;;;12.33;10.47;;;;;;;;;;4545990;28;20041;-65
2022/03/17 07:04:03;;;;;;;10.57;9.33;;;;;;;;;;4545477;28;41310;-64
2022/03/17 07:06:13;;;;;;;12.10;9.80;;;;;;;;;;4544727;28;20569;-65
2022/03/17 07:08:23;;;;;;;13.30;10.67;;;;;;;;;;4545122;28;20059;-65
2022/03/17 07:10:34;;;;;;;11.97;10.30;;;;;;;;;;4543855;28;20143;-64
2022/03/17 07:12:46;;;;;;;12.80;11.10;;;;;;;;;;4546965;28;20051;-64
2022/03/17 07:14:56;;;;;;;12.85;10.27;;;;;;;;;;4545439;28;20828;-64
2022/03/17 07:17:07;;;;;;;12.00;10.00;;;;;;;;;;4545645;28;20068;-64
2022/03/17 07:19:18;;;;;;;12.50;10.77;;;;;;;;;;4545791;28;20655;-64
2022/03/17 07:21:28;;;;;;;13.00;11.07;;;;;;;;;;4545095;28;24382;-65
2022/03/17 07:23:39;;;;;;;12.30;10.97;;;;;;;;;;4545386;28;20056;-64
2022/03/17 07:25:49;;;;;;;13.17;10.60;;;;;;;;;;4547488;28;20147;-65
2022/03/17 07:27:59;;;;;;;12.00;10.30;;;;;;;;;;4545065;28;20097;-64
2022/03/17 07:30:22;;;;;;;12.50;10.97;;;;;;;;;;4548539;28;20443;-64
2022/03/17 07:32:32;;;;;;;13.68;11.23;;;;;;;;;;4542952;28;20040;-64
2022/03/17 07:34:43;;;;;;;13.13;11.30;;;;;;;;;;4545401;28;20035;-64
2022/03/17 07:36:53;;;;;;;13.13;11.27;;;;;;;;;;4545625;28;20028;-64
2022/03/17 07:39:04;;;;;;;13.10;11.43;;;;;;;;;;4545677;28;20029;-64
2022/03/17 07:41:15;;;;;;;13.37;11.33;;;;;;;;;;4545829;28;20115;-64
2022/03/17 07:43:25;;;;;;;13.65;10.85;;;;;;;;;;4545210;28;20091;-63
2022/03/17 07:45:53;;;;;;;13.18;11.25;;;;;;;;;;4546961;28;20902;-64
2022/03/17 07:48:33;;;;;;;;;;;;;;;;;;4532483;28;20041;-64
2022/03/17 07:50:51;;;;;;;9.55;8.20;;;;;;;;;;4514923;28;20476;-64
2022/03/17 07:53:02;;;;;;;9.60;7.53;;;;;;;;;;4543148;28;20070;-64
2022/03/17 07:55:13;;;;;;;9.30;7.73;;;;;;;;;;4543771;28;20094;-64
2022/03/17 07:57:23;;;;;;;12.82;10.40;;;;;;;;;;4541775;28;20147;-64
2022/03/17 07:59:34;;;;;;;14.20;12.17;;;;;;;;;;4543724;28;20118;-64
2022/03/17 08:01:45;;;;;;;9.40;7.78;;;;;;;;;;4542515;28;20086;-65
2022/03/17 08:03:55;;;;;;;9.70;7.83;;;;;;;;;;4541817;28;20885;-65
2022/03/17 08:06:06;;;;;;;9.40;8.00;;;;;;;;;;4543804;28;20257;-65
2022/03/17 08:08:18;;;;;;;9.90;7.97;;;;;;;;;;4541019;28;20040;-65
2022/03/17 08:10:28;;;;;;;9.52;7.82;;;;;;;;;;4541434;28;20654;-66
2022/03/17 08:12:39;;;;;;;9.73;8.23;;;;;;;;;;4545348;28;20082;-65
2022/03/17 08:14:50;;;;;;;9.37;7.90;;;;;;;;;;4528218;28;20133;-65
2022/03/17 08:17:00;;;;;;;9.15;7.93;;;;;;;;;;4544787;28;20043;-65
2022/03/17 08:19:11;;;;;;;8.77;7.47;;;;;;;;;;4546709;28;20166;-65
2022/03/17 08:21:22;;;;;;;12.30;10.55;;;;;;;;;;4542399;28;20139;-66
2022/03/17 08:23:34;;;;;;;13.00;10.77;;;;;;;;;;4544889;28;20151;-66
2022/03/17 08:25:44;;;;;;;12.70;11.27;;;;;;;;;;4543014;28;20090;-65
2022/03/17 08:27:56;;;;;;;9.35;8.10;;;;;;;;;;4544347;28;20943;-65
2022/03/17 08:30:09;;;;;;;8.50;7.33;;;;;;;;;;4545232;28;20167;-66
2022/03/17 08:32:19;;;;;;;9.77;8.32;;;;;;;;;;4530775;28;20904;-65
2022/03/17 08:34:30;;;;;;;9.90;8.10;;;;;;;;;;4545397;28;20319;-66
2022/03/17 08:36:40;;;;;;;10.40;8.47;;;;;;;;;;4528481;28;20035;-64
2022/03/17 08:38:52;;;;;;;8.85;6.93;;;;;;;;;;4543603;28;20478;-64
2022/03/17 08:41:02;;;;;;;8.50;7.05;;;;;;;;;;4543381;28;20033;-64
2022/03/17 08:43:13;;;;;;;8.77;7.27;;;;;;;;;;4542930;28;20477;-65
2022/03/17 08:50:23;;;;;;;8.02;6.60;;;;;;;;;;4543273;28;20033;-65
2022/03/17 08:52:33;;;;;;;8.63;7.67;;;;;;;;;;4542047;28;20045;-65
2022/03/17 08:54:44;;;;;;;8.90;7.00;;;;;;;;;;4546865;28;20464;-64
2022/03/17 08:56:59;;;;;;;8.83;7.30;;;;;;;;;;4544159;28;20638;-65
2022/03/17 08:59:10;;;;;;;8.98;6.97;;;;;;;;;;4543792;28;20033;-65
2022/03/17 09:01:21;;;;;;;11.53;9.67;;;;;;;;;;4544839;28;20033;-64
2022/03/17 09:03:32;;;;;;;9.70;7.20;;;;;;;;;;4544160;28;20286;-64
2022/03/17 09:05:43;;;;;;;;;;;;;;;;;;4543172;28;20037;-64
2022/03/17 09:07:53;;;;;;;6.22;4.63;;;;;;;;;;4552209;28;19912;-64
2022/03/17 09:10:05;;;;;;;5.33;3.90;;;;;;;;;;4546437;28;22440;-64
2022/03/17 09:12:16;;;;;;;4.72;3.67;;;;;;;;;;4542945;28;20041;-64
2022/03/17 09:14:28;;;;;;;5.20;3.53;;;;;;;;;;4544740;28;20033;-65
2022/03/17 09:16:38;;;;;;;4.72;3.20;;;;;;;;;;4544626;28;20096;-64
2022/03/17 09:18:49;;;;;;;4.43;2.90;;;;;;;;;;4544932;28;20457;-65
2022/03/17 09:21:00;;;;;;;4.40;2.97;;;;;;;;;;4544820;28;20040;-65
2022/03/17 09:23:10;;;;;;;4.43;3.00;;;;;;;;;;4542392;28;20041;-64
2022/03/17 09:25:28;;;;;;;3.57;2.67;;;;;;;;;;4542026;28;20088;-64
2022/03/17 09:27:38;;;;;;;3.33;2.60;;;;;;;;;;4542716;28;20469;-64
2022/03/17 09:29:49;;;;;;;4.47;2.80;;;;;;;;;;4543784;28;32263;-64
2022/03/17 09:32:00;;;;;;;3.40;2.70;;;;;;;;;;4545271;28;20041;-64
2022/03/17 09:34:11;;;;;;;4.30;2.75;;;;;;;;;;4541812;28;20677;-64
2022/03/17 09:36:21;;;;;;;4.60;2.70;;;;;;;;;;4540850;28;20041;-64
2022/03/17 09:38:32;;;;;;;4.33;2.77;;;;;;;;;;4557957;28;20070;-64
2022/03/17 09:40:42;;;;;;;3.93;2.63;;;;;;;;;;4544075;28;20115;-64
2022/03/17 09:43:18;;;;;;;3.37;2.43;;;;;;;;;;4548774;28;20098;-65
2022/03/17 09:45:24;;;;;;;4.03;3.10;;;;;;;;;;4544098;28;20160;-64
2022/03/17 09:47:37;;;;;;;4.03;2.80;;;;;;;;;;4546445;28;20141;-65
2022/03/17 09:49:49;;;;;;;5.57;2.80;;;;;;;;;;4545603;28;20808;-65
2022/03/17 09:52:04;;;;;;;3.45;2.67;;;;;;;;;;4544873;28;20033;-65
2022/03/17 09:54:14;;;;;;;5.00;3.20;;;;;;;;;;4543950;28;20047;-65
2022/03/17 09:56:25;;;;;;;4.63;3.00;;;;;;;;;;4543790;28;20040;-64
2022/03/17 09:58:36;;;;;;;5.63;3.08;;;;;;;;;;4544878;28;20141;-65
2022/03/17 10:00:49;;;;;;;6.20;2.93;;;;;;;;;;4544164;28;20200;-65
2022/03/17 10:02:59;;;;;;;4.13;2.80;;;;;;;;;;4545495;28;20118;-65
2022/03/17 10:05:13;;;;;;;4.73;3.00;;;;;;;;;;4545627;28;20119;-65
2022/03/17 10:07:23;;;;;;;3.28;2.63;;;;;;;;;;4544452;28;20619;-64
2022/03/17 10:09:34;;;;;;;5.17;2.80;;;;;;;;;;4543361;28;20051;-65
2022/03/17 10:11:44;;;;;;;4.57;2.90;;;;;;;;;;4546376;28;20078;-65
2022/03/17 10:13:56;;;;;;;5.00;3.10;;;;;;;;;;4545904;28;20487;-64
2022/03/17 10:16:20;;;;;;;4.90;2.67;;;;;;;;;;4546038;28;20033;-64
2022/03/17 10:18:36;;;;;;;5.65;2.80;;;;;;;;;;4543384;28;20037;-64
2022/03/17 10:20:46;;;;;;;4.00;2.50;;;;;;;;;;4559319;28;20036;-65
2022/03/17 10:22:58;;;;;;;5.33;2.80;;;;;;;;;;4547109;28;20107;-64
2022/03/17 10:25:12;;;;;;;5.22;2.85;;;;;;;;;;4536865;28;20059;-65
2022/03/17 10:27:40;;;;;;;4.95;2.47;;;;;;;;;;4545780;28;20127;-64
2022/03/17 10:30:01;;;;;;;3.45;2.60;;;;;;;;;;4545296;28;20083;-65
2022/03/17 10:32:14;;;;;;;5.40;2.88;;;;;;;;;;4545819;28;20079;-64
2022/03/17 10:34:33;;;;;;;4.18;2.38;;;;;;;;;;4546804;28;20078;-65
2022/03/17 10:36:45;;;;;;;3.35;2.00;;;;;;;;;;4544636;28;20824;-65
2022/03/17 10:38:56;;;;;;;3.78;2.28;;;;;;;;;;4545275;28;20036;-65
2022/03/17 10:41:12;;;;;;;4.33;2.30;;;;;;;;;;4547338;28;20079;-65
2022/03/17 10:43:24;;;;;;;4.10;2.47;;;;;;;;;;4546181;28;20049;-65
2022/03/17 10:45:34;;;;;;;4.38;2.13;;;;;;;;;;4545077;28;20067;-65
2022/03/17 10:47:46;;;;;;;3.53;2.00;;;;;;;;;;4545183;28;20654;-64
2022/03/17 10:50:18;;;;;;;4.10;2.20;;;;;;;;;;4546141;28;20864;-65
2022/03/17 10:52:46;;;;;;;4.88;2.10;;;;;;;;;;4547003;28;20035;-65
2022/03/17 10:54:57;;;;;;;2.97;1.70;;;;;;;;;;4545238;28;20039;-65
2022/03/17 10:57:12;;;;;;;3.03;1.98;;;;;;;;;;4546685;28;20566;-65
2022/03/17 10:59:22;;;;;;;3.67;1.90;;;;;;;;;;4546471;28;20857;-65
2022/03/17 11:01:39;;;;;;;3.27;2.10;;;;;;;;;;4543515;28;20088;-65
2022/03/17 11:03:51;;;;;;;3.22;1.98;;;;;;;;;;4544767;28;20071;-65
2022/03/17 11:06:06;;;;;;;4.70;2.45;;;;;;;;;;4545574;28;20147;-65
2022/03/17 11:08:19;;;;;;;4.03;2.65;;;;;;;;;;4544002;28;20608;-65
2022/03/17 11:10:30;;;;;;;4.20;2.08;;;;;;;;;;4544329;28;20036;-65
2022/03/17 11:12:40;;;;;;;4.83;2.50;;;;;;;;;;4547215;28;28666;-65
2022/03/17 11:14:53;;;;;;;4.23;2.37;;;;;;;;;;4542650;28;20052;-65
2022/03/17 11:17:04;;;;;;;3.42;2.05;;;;;;;;;;4547252;28;20528;-65
2022/03/17 11:19:16;;;;;;;4.30;2.17;;;;;;;;;;4545176;28;20080;-65
2022/03/17 11:21:29;;;;;;;4.38;2.00;;;;;;;;;;4530009;28;21545;-65
2022/03/17 11:23:56;;;;;;;5.32;2.17;;;;;;;;;;4542861;28;20045;-65
2022/03/17 11:26:08;;;;;;;4.93;1.90;;;;;;;;;;4545282;28;20036;-65
2022/03/17 11:28:30;;;;;;;3.75;2.10;;;;;;;;;;4545828;28;20967;-65
2022/03/17 11:30:45;;;;;;;4.07;2.00;;;;;;;;;;4542845;28;20036;-65
2022/03/17 11:32:58;;;;;;;3.83;1.88;;;;;;;;;;4526582;28;20104;-65
2022/03/17 11:35:16;;;;;;;4.28;1.95;;;;;;;;;;4545931;28;20057;-65
2022/03/17 11:37:28;;;;;;;2.63;1.60;;;;;;;;;;4546909;28;20118;-65
2022/03/17 11:40:09;;;;;;;3.15;1.77;;;;;;;;;;4545397;28;20037;-65
2022/03/17 11:42:39;;;;;;;3.80;1.80;;;;;;;;;;4542790;28;20049;-65
2022/03/17 11:44:50;;;;;;;2.63;1.50;;;;;;;;;;4545904;28;20049;-65
2022/03/17 11:47:00;;;;;;;2.70;1.63;;;;;;;;;;4543495;28;20541;-65
2022/03/17 11:49:21;;;;;;;2.97;1.70;;;;;;;;;;4543955;28;28280;-65
2022/03/17 11:51:34;;;;;;;2.22;1.40;;;;;;;;;;4544738;28;20041;-65
2022/03/17 11:54:04;;;;;;;3.45;1.67;;;;;;;;;;4543735;28;20726;-65
2022/03/17 11:56:37;;;;;;;4.75;1.65;;;;;;;;;;4543114;28;20063;-65
2022/03/17 11:58:48;;;;;;;3.25;1.35;;;;;;;;;;4544026;28;20588;-65
2022/03/17 12:01:11;;;;;;;2.27;1.00;;;;;;;;;;4543038;28;20392;-65
2022/03/17 12:03:31;;;;;;;1.65;1.02;;;;;;;;;;4544867;28;20848;-65
2022/03/17 12:05:42;;;;;;;2.83;1.00;;;;;;;;;;4542536;28;20115;-65
2022/03/17 12:07:57;;;;;;;2.55;0.95;;;;;;;;;;4544893;28;20033;-65
2022/03/17 12:10:09;;;;;;;1.40;0.90;;;;;;;;;;4544408;28;20038;-66
2022/03/17 12:12:27;;;;;;;3.25;0.85;;;;;;;;;;4544592;28;20618;-65
2022/03/17 12:14:48;;;;;;;2.13;0.85;;;;;;;;;;4544496;28;20083;-66
2022/03/17 12:17:04;;;;;;;1.67;0.80;;;;;;;;;;4544830;28;20045;-66
2022/03/17 12:19:37;;;;;;;1.50;0.80;;;;;;;;;;4544419;28;20028;-65
2022/03/17 12:22:04;;;;;;;1.20;0.73;;;;;;;;;;4536625;28;20037;-66
2022/03/17 12:24:32;;;;;;;2.63;0.82;;;;;;;;;;4546127;28;20555;-66
2022/03/17 12:26:43;;;;;;;3.72;1.00;;;;;;;;;;4546176;28;20042;-66
2022/03/17 12:28:53;;;;;;;3.07;0.87;;;;;;;;;;4545754;28;20039;-66
2022/03/17 12:31:04;;;;;;;0.97;0.57;;;;;;;;;;4544593;28;20528;-66
2022/03/17 12:33:16;;;;;;;1.73;0.57;;;;;;;;;;4545848;28;20040;-66
2022/03/17 12:35:31;;;;;;;1.58;0.52;;;;;;;;;;4551980;28;20143;-66
2022/03/17 12:37:43;;;;;;;2.45;0.70;;;;;;;;;;4544768;28;20124;-66
2022/03/17 12:39:55;;;;;;;2.63;0.60;;;;;;;;;;4544551;28;20555;-65
2022/03/17 12:42:22;;;;;;;1.13;0.57;;;;;;;;;;4546409;28;20029;-64
2022/03/17 12:44:33;;;;;;;1.15;0.70;;;;;;;;;;4544309;28;20931;-65
2022/03/17 12:46:44;;;;;;;2.07;0.57;;;;;;;;;;4544384;28;26202;-64
2022/03/17 12:49:07;;;;;;;1.67;0.77;;;;;;;;;;4543105;28;20512;-64
2022/03/17 12:51:18;;;;;;;2.30;0.98;;;;;;;;;;4545316;28;20136;-64
2022/03/17 12:53:29;;;;;;;1.30;0.65;;;;;;;;;;4552544;28;20130;-64
2022/03/17 12:55:40;;;;;;;2.92;0.90;;;;;;;;;;4545345;28;20028;-65
2022/03/17 12:57:50;;;;;;;1.90;0.70;;;;;;;;;;4542612;28;20545;-64
2022/03/17 13:00:04;;;;;;;2.47;0.90;;;;;;;;;;4542087;28;20053;-64
2022/03/17 13:02:21;;;;;;;2.28;0.70;;;;;;;;;;4542986;28;20031;-65
2022/03/17 13:04:35;;;;;;;1.05;0.60;;;;;;;;;;4545670;28;20075;-65
2022/03/17 13:06:55;;;;;;;2.85;0.85;;;;;;;;;;4543762;28;20076;-65
2022/03/17 13:09:05;;;;;;;2.90;0.98;;;;;;;;;;4543232;28;20582;-65
2022/03/17 13:16:16;;;;;;;3.35;1.00;;;;;;;;;;4546292;28;20584;-65
2022/03/17 13:18:39;;;;;;;1.53;0.83;;;;;;;;;;4555454;28;20032;-66
2022/03/17 13:20:59;;;;;;;2.53;0.77;;;;;;;;;;4545992;28;20717;-66
2022/03/17 13:23:11;;;;;;;2.35;1.00;;;;;;;;;;4545228;28;20095;-65
2022/03/17 13:25:22;;;;;;;2.67;1.00;;;;;;;;;;4547906;28;20754;-67
2022/03/17 13:27:34;;;;;;;1.55;0.80;;;;;;;;;;4547394;28;20037;-66
2022/03/17 13:29:52;;;;;;;2.58;0.73;;;;;;;;;;4544766;28;20610;-66
2022/03/17 13:32:16;;;;;;;3.33;1.13;;;;;;;;;;4546907;28;20068;-66